Time;durP1;ratioP1;P1;durP2;ratioP2;P2;SDS_P1;SDS_P2;PMS_P1;PMS_P2;Temp;Humidity;BMP_temperature;BMP_pressure;BME280_temperature;BME280_humidity;BME280_pressure;Samples;Min_cycle;Max_cycle;Signal;HPM_P1;HPM_P2
2022/08/01 00:00:02;;;;;;;4.50;4.20;;;;;;;18.09;100.00;99180.16;5047722;28;20294;-76
2022/08/01 00:02:30;;;;;;;4.27;3.90;;;;;;;18.05;100.00;99181.81;5047132;28;20240;-76
2022/08/01 00:04:58;;;;;;;4.70;4.30;;;;;;;18.02;100.00;99185.06;5047047;28;20240;-77
2022/08/01 00:07:24;;;;;;;4.63;4.23;;;;;;;18.03;100.00;99186.69;5049404;28;20228;-76
2022/08/01 00:09:51;;;;;;;4.70;4.27;;;;;;;17.98;100.00;99181.28;5047212;28;20232;-76
2022/08/01 00:12:18;;;;;;;4.47;4.07;;;;;;;17.96;100.00;99184.28;5048183;28;20236;-76
2022/08/01 00:14:44;;;;;;;4.10;3.80;;;;;;;17.92;100.00;99187.81;5048851;28;20240;-76
2022/08/01 00:17:11;;;;;;;4.20;3.90;;;;;;;17.92;100.00;99185.09;5049382;28;20326;-78
2022/08/01 00:19:38;;;;;;;4.80;4.40;;;;;;;17.86;100.00;99181.63;5052131;28;20239;-76
2022/08/01 00:22:04;;;;;;;4.60;4.20;;;;;;;17.85;100.00;99188.13;5051535;28;20319;-76
2022/08/01 00:24:31;;;;;;;4.40;4.10;;;;;;;17.85;100.00;99190.03;5052892;28;20241;-76
2022/08/01 00:26:58;;;;;;;4.57;4.17;;;;;;;17.77;100.00;99193.31;5051849;28;20905;-75
2022/08/01 00:29:25;;;;;;;4.73;4.33;;;;;;;17.70;100.00;99190.88;5050952;28;20228;-76
2022/08/01 00:32:11;;;;;;;4.83;4.43;;;;;;;17.64;100.00;99189.28;5051535;28;20294;-75
2022/08/01 00:34:38;;;;;;;4.43;4.13;;;;;;;17.58;100.00;99182.25;5052190;28;20231;-76
2022/08/01 00:37:05;;;;;;;4.77;4.40;;;;;;;17.59;100.00;99186.59;5051804;28;20271;-75
2022/08/01 00:39:32;;;;;;;4.43;4.13;;;;;;;17.53;100.00;99183.06;5052184;28;20318;-76
2022/08/01 00:42:00;;;;;;;4.70;4.30;;;;;;;17.50;100.00;99186.31;5051678;28;20503;-76
2022/08/01 00:44:27;;;;;;;4.70;4.40;;;;;;;17.46;100.00;99185.25;5047176;28;20227;-76
2022/08/01 00:46:53;;;;;;;4.97;4.57;;;;;;;17.40;100.00;99178.25;5051261;28;20313;-76
2022/08/01 00:49:20;;;;;;;4.70;4.30;;;;;;;17.37;100.00;99175.25;5051718;28;22062;-75
2022/08/01 00:51:48;;;;;;;4.77;4.47;;;;;;;17.37;100.00;99191.50;5051344;28;20703;-76
2022/08/01 00:54:15;;;;;;;4.97;4.67;;;;;;;17.34;100.00;99183.94;5044894;28;20326;-77
2022/08/01 00:56:43;;;;;;;5.03;4.63;;;;;;;17.30;100.00;99188.28;5051832;28;20245;-77
2022/08/01 00:59:11;;;;;;;4.93;4.53;;;;;;;17.30;100.00;99183.69;5046053;28;20252;-77
2022/08/01 01:01:40;;;;;;;4.93;4.53;;;;;;;17.27;100.00;99181.50;5051577;28;20245;-77
2022/08/01 01:04:12;;;;;;;5.23;4.73;;;;;;;17.27;100.00;99176.09;5050956;28;20226;-77
2022/08/01 01:06:51;;;;;;;4.97;4.50;;;;;;;17.26;100.00;99176.38;5051626;28;20226;-78
2022/08/01 01:09:24;;;;;;;5.27;4.90;;;;;;;17.28;100.00;99174.19;5044143;28;20697;-77
2022/08/01 01:12:16;;;;;;;5.03;4.63;;;;;;;17.31;100.00;99176.38;5051250;28;20551;-76
2022/08/01 01:14:59;;;;;;;5.27;4.77;;;;;;;17.31;100.00;99184.50;5031944;28;20226;-78
2022/08/01 01:17:47;;;;;;;7.90;5.03;;;;;;;17.30;100.00;99178.25;5047674;28;20227;-77
2022/08/01 01:20:17;;;;;;;5.20;4.70;;;;;;;17.28;100.00;99176.91;5038574;28;20258;-76
2022/08/01 01:22:58;;;;;;;5.30;4.80;;;;;;;17.24;100.00;99178.53;5041542;28;20744;-76
2022/08/01 01:25:37;;;;;;;5.60;5.10;;;;;;;17.23;100.00;99175.00;5037594;28;20230;-77
2022/08/01 01:28:17;;;;;;;5.10;4.70;;;;;;;17.17;100.00;99176.09;5025748;28;20591;-76
2022/08/01 01:30:46;;;;;;;5.50;5.00;;;;;;;17.16;100.00;99169.09;5033131;28;20692;-77
2022/08/01 01:33:14;;;;;;;5.27;4.97;;;;;;;17.14;100.00;99176.66;5058181;28;20261;-76
2022/08/01 01:35:47;;;;;;;5.23;4.60;;;;;;;17.13;100.00;99175.03;5049682;28;20236;-78
2022/08/01 01:38:23;;;;;;;5.17;4.70;;;;;;;17.14;100.00;99174.75;5052168;28;20245;-77
2022/08/01 01:40:51;;;;;;;4.60;4.30;;;;;;;17.11;100.00;99161.78;5053531;28;20287;-77
2022/08/01 01:43:19;;;;;;;5.30;4.80;;;;;;;17.09;100.00;99155.00;5047809;28;20231;-78
2022/08/01 01:45:47;;;;;;;4.87;4.47;;;;;;;17.08;100.00;99165.00;5044015;28;20702;-77
2022/08/01 01:48:17;;;;;;;5.60;5.20;;;;;;;17.03;100.00;99158.81;5045520;28;20704;-76
2022/08/01 01:50:46;;;;;;;5.43;5.03;;;;;;;17.05;100.00;99153.94;5040882;28;20234;-77
2022/08/01 01:53:15;;;;;;;5.67;5.17;;;;;;;17.05;100.00;99156.63;5040492;28;20231;-77
2022/08/01 01:55:44;;;;;;;5.70;5.20;;;;;;;17.05;100.00;99149.34;5049067;28;20230;-77
2022/08/01 01:58:16;;;;;;;5.40;5.00;;;;;;;17.04;100.00;99158.53;5041694;28;20222;-76
2022/08/01 02:00:44;;;;;;;5.33;5.03;;;;;;;17.10;100.00;99156.63;5041274;28;20218;-78
2022/08/01 02:03:12;;;;;;;5.10;4.70;;;;;;;17.11;100.00;99160.97;5051770;28;20260;-78
2022/08/01 02:05:39;;;;;;;5.00;4.70;;;;;;;17.10;100.00;99165.56;5064568;28;20251;-77
2022/08/01 02:08:07;;;;;;;5.10;4.70;;;;;;;17.12;100.00;99168.78;5054552;28;20761;-77
2022/08/01 02:10:35;;;;;;;5.63;5.13;;;;;;;17.13;100.00;99159.59;5054916;28;20313;-76
2022/08/01 02:13:03;;;;;;;5.20;4.80;;;;;;;17.16;100.00;99159.06;5057056;28;20258;-77
2022/08/01 02:15:32;;;;;;;5.30;4.80;;;;;;;17.17;100.00;99157.97;5041395;28;20317;-76
2022/08/01 02:18:00;;;;;;;5.30;4.90;;;;;;;17.21;100.00;99152.84;5044474;28;20321;-77
2022/08/01 02:20:30;;;;;;;5.30;4.80;;;;;;;17.20;100.00;99156.63;5040005;28;20227;-77
2022/08/01 02:23:01;;;;;;;5.10;4.77;;;;;;;17.18;100.00;99153.34;5049708;28;20234;-77
2022/08/01 02:25:34;;;;;;;5.37;5.00;;;;;;;17.17;100.00;99157.16;5049996;28;20262;-77
2022/08/01 02:28:07;;;;;;;6.03;5.53;;;;;;;17.18;100.00;99156.88;5039902;28;20273;-76
2022/08/01 02:30:38;;;;;;;5.67;5.17;;;;;;;17.21;100.00;99160.94;5036976;28;20231;-77
2022/08/01 02:33:12;;;;;;;5.23;4.83;;;;;;;17.24;100.00;99160.41;5051535;28;20724;-78
2022/08/01 02:35:44;;;;;;;6.10;5.70;;;;;;;17.27;100.00;99159.03;5040122;28;20231;-77
2022/08/01 02:38:32;;;;;;;5.80;5.30;;;;;;;17.32;100.00;99156.31;5038751;28;20284;-77
2022/08/01 02:41:04;;;;;;;5.53;5.03;;;;;;;17.32;100.00;99143.59;5055333;28;20719;-77
2022/08/01 02:43:32;;;;;;;5.73;5.33;;;;;;;17.40;100.00;99151.16;5044882;28;20243;-77
2022/08/01 02:46:01;;;;;;;5.23;4.83;;;;;;;17.39;100.00;99143.31;5043609;28;20240;-77
2022/08/01 02:48:30;;;;;;;5.90;5.50;;;;;;;17.43;100.00;99147.06;5050533;28;20234;-77
2022/08/01 02:50:58;;;;;;;5.70;5.17;;;;;;;17.44;100.00;99144.09;5046350;28;20234;-76
2022/08/01 02:53:26;;;;;;;5.63;5.13;;;;;;;17.51;100.00;99141.91;5045853;28;20328;-78
2022/08/01 02:56:11;;;;;;;5.60;5.20;;;;;;;17.53;100.00;99147.06;5047383;28;20259;-79
2022/08/01 02:58:38;;;;;;;5.63;5.23;;;;;;;17.57;100.00;99140.00;5048819;28;20231;-78
2022/08/01 03:01:07;;;;;;;5.97;5.47;;;;;;;17.60;100.00;99134.03;5044987;28;20315;-78
2022/08/01 03:03:33;;;;;;;5.70;5.30;;;;;;;17.65;100.00;99131.31;5054479;28;20229;-77
2022/08/01 03:06:01;;;;;;;5.37;5.03;;;;;;;17.69;100.00;99137.78;5047668;28;20236;-76
2022/08/01 03:08:29;;;;;;;5.80;5.40;;;;;;;17.72;100.00;99126.41;5048133;28;20228;-77
2022/08/01 03:10:58;;;;;;;6.00;5.50;;;;;;;17.77;100.00;99133.72;5043005;28;20319;-77
2022/08/01 03:13:25;;;;;;;5.97;5.47;;;;;;;17.81;100.00;99135.59;5049725;28;20227;-78
2022/08/01 03:15:54;;;;;;;5.57;5.17;;;;;;;17.82;100.00;99131.78;5045131;28;20263;-77
2022/08/01 03:18:21;;;;;;;5.37;5.00;;;;;;;17.89;100.00;99129.56;5044967;28;20225;-77
2022/08/01 03:20:48;;;;;;;5.90;5.40;;;;;;;17.90;100.00;99131.19;5049608;28;20331;-78
2022/08/01 03:23:16;;;;;;;5.73;5.23;;;;;;;17.96;100.00;99132.00;5049467;28;20741;-77
2022/08/01 03:25:44;;;;;;;5.83;5.43;;;;;;;17.97;100.00;99123.56;5043347;28;20316;-78
2022/08/01 03:28:13;;;;;;;5.50;5.07;;;;;;;18.01;100.00;99126.50;5050892;28;20243;-77
2022/08/01 03:30:40;;;;;;;5.47;4.97;;;;;;;18.03;100.00;99119.75;5047135;28;20227;-77
2022/08/01 03:33:07;;;;;;;5.40;4.93;;;;;;;18.10;100.00;99122.16;5046005;28;20323;-78
2022/08/01 03:35:36;;;;;;;5.83;5.30;;;;;;;18.12;100.00;99119.94;5052810;28;20240;-77
2022/08/01 03:38:05;;;;;;;5.77;5.37;;;;;;;18.15;100.00;99113.97;5047282;28;20656;-77
2022/08/01 03:40:52;;;;;;;5.70;5.20;;;;;;;18.21;100.00;99120.16;5051962;28;20322;-78
2022/08/01 03:43:38;;;;;;;5.60;5.20;;;;;;;18.21;100.00;99123.69;5054214;28;20277;-77
2022/08/01 03:46:07;;;;;;;5.30;4.90;;;;;;;18.27;100.00;99122.56;5047427;28;20250;-77
2022/08/01 03:48:41;;;;;;;5.67;5.27;;;;;;;18.31;100.00;99123.63;5050918;28;20227;-78
2022/08/01 03:51:08;;;;;;;5.57;5.17;;;;;;;18.37;100.00;99124.41;5047078;28;20279;-76
2022/08/01 03:53:36;;;;;;;5.80;5.10;;;;;;;18.39;100.00;99125.72;5057960;28;20238;-77
2022/08/01 03:56:08;;;;;;;5.23;4.83;;;;;;;18.41;100.00;99137.13;5058944;28;20228;-80
2022/08/01 03:58:36;;;;;;;5.77;5.37;;;;;;;18.46;100.00;99138.97;5053995;28;20224;-77
2022/08/01 04:01:03;;;;;;;5.20;4.80;;;;;;;18.48;100.00;99137.59;5064722;28;20227;-77
2022/08/01 04:03:31;;;;;;;5.80;5.30;;;;;;;18.52;100.00;99142.47;5056516;28;20224;-77
2022/08/01 04:06:08;;;;;;;5.40;5.10;;;;;;;18.60;100.00;99141.88;5057937;28;20237;-77
2022/08/01 04:08:36;;;;;;;5.50;5.10;;;;;;;18.65;100.00;99158.94;5062504;28;20233;-76
2022/08/01 04:11:02;;;;;;;5.90;5.50;;;;;;;18.72;100.00;99153.16;5057919;28;20235;-77
2022/08/01 04:13:31;;;;;;;5.93;5.37;;;;;;;18.81;100.00;99148.75;5056514;28;20250;-77
2022/08/01 04:16:03;;;;;;;5.10;4.80;;;;;;;18.91;100.00;99145.94;5058377;28;20288;-76
2022/08/01 04:18:29;;;;;;;5.53;5.13;;;;;;;19.00;100.00;99159.72;5056697;28;20871;-77
2022/08/01 04:20:56;;;;;;;5.17;4.73;;;;;;;19.09;100.00;99158.00;5056351;28;20232;-78
2022/08/01 04:23:25;;;;;;;4.80;4.50;;;;;;;19.13;100.00;99153.63;5061896;28;20224;-77
2022/08/01 04:25:53;;;;;;;5.87;4.90;;;;;;;19.18;100.00;99156.28;5060727;28;20239;-78
2022/08/01 04:28:20;;;;;;;5.77;5.27;;;;;;;19.29;100.00;99163.22;5036073;28;20676;-77
2022/08/01 04:30:49;;;;;;;5.20;4.70;;;;;;;19.38;100.00;99169.66;5056004;28;20255;-77
2022/08/01 04:33:17;;;;;;;5.43;4.93;;;;;;;19.34;100.00;99160.47;5052301;28;20638;-76
2022/08/01 04:35:45;;;;;;;5.50;5.00;;;;;;;19.40;100.00;99163.94;5052959;28;20236;-77
2022/08/01 04:38:32;;;;;;;5.10;4.63;;;;;;;19.46;100.00;99158.19;5050879;28;20226;-76
2022/08/01 04:41:01;;;;;;;5.10;4.80;;;;;;;19.53;100.00;99161.38;5054893;28;20237;-76
2022/08/01 04:43:36;;;;;;;5.50;5.10;;;;;;;19.65;100.00;99161.75;5055256;28;20334;-77
2022/08/01 04:46:03;;;;;;;5.27;4.97;;;;;;;19.79;100.00;99170.84;5050345;28;20232;-78
2022/08/01 04:48:32;;;;;;;5.57;5.07;;;;;;;19.89;100.00;99178.06;5050120;28;20245;-80
2022/08/01 04:50:59;;;;;;;5.53;5.17;;;;;;;20.03;100.00;99169.97;5055873;28;20736;-81
2022/08/01 04:53:26;;;;;;;5.53;5.03;;;;;;;20.22;100.00;99168.09;5051092;28;20231;-79
2022/08/01 04:55:53;;;;;;;5.53;5.13;;;;;;;20.33;100.00;99176.97;5054946;28;20285;-79
2022/08/01 04:58:20;;;;;;;5.77;5.33;;;;;;;20.40;100.00;99172.75;5061020;28;20240;-78
2022/08/01 05:00:46;;;;;;;5.17;4.77;;;;;;;20.50;100.00;99172.59;5057751;28;20223;-83
2022/08/01 05:03:13;;;;;;;5.70;5.20;;;;;;;20.65;100.00;99174.28;5049970;28;20236;-80
2022/08/01 05:05:40;;;;;;;5.73;5.13;;;;;;;20.82;100.00;99173.72;5060700;28;20318;-80
2022/08/01 05:08:07;;;;;;;5.70;5.30;;;;;;;20.98;100.00;99173.19;5060657;28;20324;-79
2022/08/01 05:10:34;;;;;;;5.60;5.20;;;;;;;21.22;100.00;99175.00;5058325;28;20650;-79
2022/08/01 05:13:00;;;;;;;5.00;4.63;;;;;;;21.44;100.00;99180.56;5069473;28;20264;-79
2022/08/01 05:15:27;;;;;;;5.93;4.90;;;;;;;21.62;100.00;99170.69;5054195;28;20638;-79
2022/08/01 05:17:56;;;;;;;5.72;4.72;;;;;;;21.82;100.00;99176.53;5059338;28;20659;-79
2022/08/01 05:20:23;;;;;;;4.80;4.40;;;;;;;22.06;100.00;99168.16;5062246;28;20771;-79
2022/08/01 05:22:49;;;;;;;4.68;4.28;;;;;;;22.17;100.00;99164.09;5061368;28;20225;-79
2022/08/01 05:25:16;;;;;;;4.68;4.10;;;;;;;22.28;100.00;99165.47;5051718;28;20246;-78
2022/08/01 05:27:46;;;;;;;4.63;3.72;;;;;;;22.38;100.00;99170.72;5062474;28;20261;-81
2022/08/01 05:30:16;;;;;;;4.32;4.07;;;;;;;22.45;100.00;99172.19;5057355;28;20292;-78
2022/08/01 05:32:43;;;;;;;4.97;4.47;;;;;;;22.51;100.00;99166.31;5064899;28;20317;-78
2022/08/01 05:35:10;;;;;;;4.63;4.30;;;;;;;22.53;100.00;99164.09;5046315;28;20336;-79
2022/08/01 05:37:36;;;;;;;4.65;4.35;;;;;;;22.60;100.00;99159.00;5046037;28;20761;-79
2022/08/01 05:40:05;;;;;;;4.30;3.92;;;;;;;22.67;100.00;99170.31;5058533;28;20237;-78
2022/08/01 05:42:31;;;;;;;4.32;4.03;;;;;;;22.78;100.00;99158.03;5057384;28;20267;-78
2022/08/01 05:44:58;;;;;;;4.32;3.92;;;;;;;22.95;100.00;99159.28;5051878;28;20289;-80
2022/08/01 05:47:24;;;;;;;4.63;4.22;;;;;;;23.18;100.00;99156.22;5051945;28;20221;-78
2022/08/01 05:49:51;;;;;;;4.32;4.03;;;;;;;23.48;100.00;99164.72;5066129;28;20283;-78
2022/08/01 05:52:18;;;;;;;4.43;4.03;;;;;;;23.91;100.00;99170.34;5058176;28;20242;-81
2022/08/01 05:54:44;;;;;;;4.32;3.90;;;;;;;24.38;94.65;99166.75;5053589;28;20299;-78
2022/08/01 05:57:11;;;;;;;3.50;3.30;;;;;;;24.63;86.18;99167.06;5051409;28;20757;-79
2022/08/01 05:59:38;;;;;;;3.80;3.50;;;;;;;24.72;85.03;99174.16;5054081;28;20850;-79
2022/08/01 06:02:04;;;;;;;4.20;3.70;;;;;;;24.84;88.36;99171.56;5051510;28;20316;-79
2022/08/01 06:04:31;;;;;;;3.70;3.40;;;;;;;24.93;88.13;99175.13;5045658;28;20251;-81
2022/08/01 06:06:58;;;;;;;3.65;3.45;;;;;;;24.99;88.75;99184.78;5047876;28;21493;-81
2022/08/01 06:09:25;;;;;;;3.58;3.30;;;;;;;25.14;87.88;99177.19;5056408;28;20257;-80
2022/08/01 06:11:51;;;;;;;3.90;3.60;;;;;;;25.25;87.25;99181.97;5051074;28;20284;-79
2022/08/01 06:14:18;;;;;;;3.35;3.08;;;;;;;25.34;86.04;99182.75;5050096;28;20320;-79
2022/08/01 06:16:44;;;;;;;3.40;3.20;;;;;;;25.43;85.09;99177.22;5055328;28;20593;-79
2022/08/01 06:19:11;;;;;;;3.78;3.47;;;;;;;25.49;87.04;99175.13;5058582;28;20264;-79
2022/08/01 06:21:38;;;;;;;3.40;3.20;;;;;;;25.63;86.37;99192.19;5048889;28;20378;-79
2022/08/01 06:24:04;;;;;;;3.60;3.20;;;;;;;25.76;84.87;99188.41;5052919;28;20252;-80
2022/08/01 06:26:31;;;;;;;3.92;3.63;;;;;;;25.85;83.87;99186.44;5045517;28;20229;-79
2022/08/01 06:28:58;;;;;;;3.72;3.40;;;;;;;25.96;81.70;99184.94;5036537;28;20244;-80
2022/08/01 06:31:24;;;;;;;3.10;2.88;;;;;;;26.00;79.36;99187.81;5039711;28;20312;-78
2022/08/01 06:33:57;;;;;;;3.13;2.90;;;;;;;26.07;79.68;99188.09;5040945;28;20242;-81
2022/08/01 06:36:25;;;;;;;3.95;3.08;;;;;;;26.20;77.10;99176.88;5073713;28;20231;-81
2022/08/01 06:38:52;;;;;;;3.25;3.05;;;;;;;26.53;75.10;99185.22;5039156;28;20320;-78
2022/08/01 06:41:18;;;;;;;4.03;3.20;;;;;;;26.83;71.77;99174.16;5042090;28;20775;-80
2022/08/01 06:43:45;;;;;;;3.42;3.13;;;;;;;27.16;68.51;99185.94;5050328;28;20367;-81
2022/08/01 06:46:11;;;;;;;3.15;2.95;;;;;;;27.37;67.24;99188.66;5051467;28;20802;-79
2022/08/01 06:48:39;;;;;;;4.50;3.00;;;;;;;27.53;66.65;99178.59;5037966;28;20221;-79
2022/08/01 06:51:09;;;;;;;3.72;2.83;;;;;;;27.82;63.31;99183.09;5035046;28;20261;-79
2022/08/01 06:53:37;;;;;;;3.47;2.58;;;;;;;28.12;57.14;99180.94;5051541;28;20245;-78
2022/08/01 06:56:04;;;;;;;3.88;2.63;;;;;;;28.49;55.34;99187.16;5045265;28;20316;-79
2022/08/01 06:58:31;;;;;;;3.13;2.65;;;;;;;28.96;51.22;99188.19;5041897;28;20263;-78
2022/08/01 07:00:57;;;;;;;2.70;2.50;;;;;;;29.56;49.33;99173.25;5041186;28;20228;-79
2022/08/01 07:03:25;;;;;;;2.38;2.08;;;;;;;30.00;46.13;99162.88;5049463;28;20218;-78
2022/08/01 07:06:12;;;;;;;3.83;2.30;;;;;;;30.31;43.95;99175.03;5052864;28;20241;-78
2022/08/01 07:08:40;;;;;;;3.33;2.33;;;;;;;30.27;43.70;99168.63;5038834;28;20267;-80
2022/08/01 07:11:07;;;;;;;3.50;2.30;;;;;;;30.34;44.11;99168.78;5049842;28;20241;-78
2022/08/01 07:13:34;;;;;;;4.70;2.40;;;;;;;30.55;43.00;99169.28;5043670;28;20228;-80
2022/08/01 07:16:14;;;;;;;2.40;2.20;;;;;;;31.03;40.93;99162.34;5042501;28;20628;-79
2022/08/01 07:18:41;;;;;;;2.10;2.00;;;;;;;31.11;40.80;99157.75;5044172;28;20237;-80
2022/08/01 07:21:07;;;;;;;2.42;2.13;;;;;;;30.96;39.17;99159.44;5048606;28;20322;-79
2022/08/01 07:23:54;;;;;;;2.30;2.10;;;;;;;30.85;40.00;99158.41;5040912;28;20828;-79
2022/08/01 07:26:22;;;;;;;2.70;1.85;;;;;;;30.67;40.09;99165.56;5042796;28;20230;-81
2022/08/01 07:28:49;;;;;;;2.10;1.90;;;;;;;30.58;40.67;99165.78;5051319;28;20241;-78
2022/08/01 07:31:15;;;;;;;2.95;2.30;;;;;;;30.44;41.32;99169.00;5044114;28;20277;-78
2022/08/01 07:33:42;;;;;;;3.15;1.92;;;;;;;30.35;41.55;99170.38;5044921;28;20229;-79
2022/08/01 07:36:16;;;;;;;2.80;2.22;;;;;;;30.27;41.67;99168.63;5051284;28;20224;-82
2022/08/01 07:38:43;;;;;;;4.00;2.10;;;;;;;30.19;42.24;99173.19;5052802;28;20259;-79
2022/08/01 07:41:09;;;;;;;2.13;2.00;;;;;;;30.00;43.99;99178.69;5053587;28;20237;-78
2022/08/01 07:43:36;;;;;;;2.30;2.15;;;;;;;29.86;43.95;99181.06;5056374;28;20271;-78
2022/08/01 07:46:03;;;;;;;2.92;2.10;;;;;;;29.45;45.14;99182.41;5059795;28;20232;-80
2022/08/01 07:48:30;;;;;;;2.85;2.00;;;;;;;29.22;46.86;99190.44;5054132;28;20229;-79
2022/08/01 07:50:57;;;;;;;3.38;2.17;;;;;;;28.95;46.43;99189.31;5051034;28;20225;-79
2022/08/01 07:53:23;;;;;;;3.03;2.35;;;;;;;28.70;46.01;99185.81;5058404;28;20233;-79
2022/08/01 07:55:50;;;;;;;2.30;2.10;;;;;;;28.50;48.47;99189.59;5058588;28;20259;-79
2022/08/01 07:58:17;;;;;;;3.08;2.30;;;;;;;28.44;50.35;99189.03;5056833;28;21014;-78
2022/08/01 08:00:44;;;;;;;2.30;2.10;;;;;;;28.29;53.15;99181.47;5051730;28;20221;-79
2022/08/01 08:03:10;;;;;;;2.78;2.28;;;;;;;28.21;53.41;99187.13;5048613;28;20253;-79
2022/08/01 08:05:37;;;;;;;3.30;2.38;;;;;;;28.10;54.97;99189.50;5043034;28;20236;-78
2022/08/01 08:08:24;;;;;;;2.30;2.10;;;;;;;27.92;58.60;99188.16;5045506;28;20312;-78
2022/08/01 08:10:50;;;;;;;4.95;2.05;;;;;;;27.93;59.40;99192.50;5042008;28;20231;-81
2022/08/01 08:13:17;;;;;;;2.53;2.33;;;;;;;28.00;62.28;99189.97;5038589;28;20229;-79
2022/08/01 08:15:44;;;;;;;2.58;2.17;;;;;;;28.08;65.04;99196.50;5046291;28;20231;-78
2022/08/01 08:18:14;;;;;;;2.97;2.03;;;;;;;28.11;55.74;99190.34;5048090;28;20275;-79
2022/08/01 08:20:40;;;;;;;2.97;2.17;;;;;;;28.32;52.34;99202.03;5044669;28;20229;-78
2022/08/01 08:24:19;;;;;;;2.20;2.10;;;;;;;28.55;52.43;99210.59;5047584;28;20252;-79
2022/08/01 08:26:10;;;;;;;2.30;2.10;;;;;;;28.89;51.15;99202.56;5042227;28;20302;-79
2022/08/01 08:28:37;;;;;;;2.00;1.90;;;;;;;29.26;52.92;99207.88;5050089;28;20236;-80
2022/08/01 08:31:06;;;;;;;2.85;2.00;;;;;;;29.65;52.53;99209.75;5041828;28;20318;-79
2022/08/01 08:33:51;;;;;;;3.72;2.00;;;;;;;29.80;45.53;99208.16;5048080;28;20222;-79
2022/08/01 08:36:18;;;;;;;2.47;2.05;;;;;;;30.16;42.82;99210.63;5050354;28;20253;-79
2022/08/01 08:38:44;;;;;;;4.20;2.13;;;;;;;30.12;41.13;99215.28;5057571;28;20299;-79
2022/08/01 08:41:11;;;;;;;4.20;2.33;;;;;;;30.35;42.56;99209.88;5061966;28;20232;-79
2022/08/01 08:43:42;;;;;;;2.90;2.58;;;;;;;30.41;43.14;99213.16;5053520;28;20230;-78
2022/08/01 08:46:12;;;;;;;2.95;2.40;;;;;;;30.68;42.71;99219.69;5051463;28;20324;-78
2022/08/01 08:48:41;;;;;;;2.72;2.40;;;;;;;30.55;40.38;99216.25;5063570;28;20812;-79
2022/08/01 08:51:10;;;;;;;3.92;2.30;;;;;;;30.58;39.60;99207.25;5054666;28;20235;-80
2022/08/01 08:53:43;;;;;;;2.42;2.22;;;;;;;30.74;40.30;99212.72;5041075;28;20265;-79
2022/08/01 08:56:12;;;;;;;2.40;2.20;;;;;;;30.30;41.17;99210.16;5059342;28;20685;-79
2022/08/01 08:58:45;;;;;;;2.30;2.10;;;;;;;30.51;40.40;99207.91;5058682;28;20240;-79
2022/08/01 09:01:13;;;;;;;2.35;2.15;;;;;;;30.45;40.63;99205.75;5053995;28;20234;-79
2022/08/01 09:03:40;;;;;;;2.50;2.30;;;;;;;30.58;40.19;99204.47;5057749;28;20222;-78
2022/08/01 09:06:07;;;;;;;2.50;2.30;;;;;;;30.76;38.99;99208.41;5053097;28;20268;-78
2022/08/01 09:08:35;;;;;;;2.97;2.30;;;;;;;30.87;38.13;99205.88;5058528;28;20599;-79
2022/08/01 09:11:03;;;;;;;2.33;2.13;;;;;;;30.84;38.21;99204.63;5061313;28;20221;-81
2022/08/01 09:13:30;;;;;;;5.07;2.63;;;;;;;30.87;38.94;99201.16;5056943;28;20332;-80
2022/08/01 09:15:58;;;;;;;2.20;2.10;;;;;;;31.29;38.29;99203.97;5053565;28;20271;-79
2022/08/01 09:18:40;;;;;;;3.08;2.70;;;;;;;30.94;38.22;99200.47;5058874;28;20257;-79
2022/08/01 09:21:14;;;;;;;3.03;2.75;;;;;;;30.85;38.14;99203.47;5050594;28;20238;-79
2022/08/01 09:23:45;;;;;;;2.35;2.15;;;;;;;31.11;37.80;99204.78;5052927;28;20247;-79
2022/08/01 09:26:34;;;;;;;3.35;2.70;;;;;;;30.99;38.11;99202.94;5051198;28;20232;-78
2022/08/01 09:29:04;;;;;;;3.45;2.50;;;;;;;30.73;39.37;99198.09;5049871;28;20225;-79
2022/08/01 09:31:40;;;;;;;3.28;2.42;;;;;;;30.58;39.70;99185.94;5053263;28;20256;-79
2022/08/01 09:34:14;;;;;;;2.60;2.40;;;;;;;30.58;40.55;99193.41;5060504;28;20286;-79
2022/08/01 09:36:53;;;;;;;2.95;2.60;;;;;;;30.94;40.12;99195.75;5054659;28;20607;-80
2022/08/01 09:39:25;;;;;;;2.67;2.28;;;;;;;31.31;38.61;99201.59;5048886;28;20321;-79
2022/08/01 09:41:53;;;;;;;2.67;2.53;;;;;;;31.51;37.85;99199.59;5045374;28;20257;-79
2022/08/01 09:44:44;;;;;;;3.95;3.00;;;;;;;31.92;36.70;99184.06;5049328;28;20237;-82
2022/08/01 09:47:21;;;;;;;2.53;2.30;;;;;;;32.01;36.92;99184.63;5054271;28;20233;-78
2022/08/01 09:49:55;;;;;;;2.88;2.60;;;;;;;32.37;36.40;99185.19;5047333;28;20230;-79
2022/08/01 09:52:26;;;;;;;2.65;2.45;;;;;;;32.33;35.80;99183.16;5050110;28;20595;-79
2022/08/01 09:55:00;;;;;;;2.90;2.60;;;;;;;31.56;37.26;99179.94;5049341;28;20312;-78
2022/08/01 09:57:28;;;;;;;2.95;2.75;;;;;;;31.86;36.39;99177.28;5052371;28;20239;-79
2022/08/01 09:59:59;;;;;;;2.70;2.50;;;;;;;32.04;36.39;99169.22;5056940;28;20232;-78
2022/08/01 10:02:31;;;;;;;3.20;2.90;;;;;;;31.82;37.20;99170.88;5055084;28;20722;-80
2022/08/01 10:04:59;;;;;;;2.88;2.47;;;;;;;31.29;37.96;99169.94;5049793;28;20260;-79
2022/08/01 10:07:35;;;;;;;3.13;2.78;;;;;;;31.04;38.01;99178.59;5053868;28;20787;-81
2022/08/01 10:10:11;;;;;;;2.60;2.40;;;;;;;31.09;37.63;99169.19;5048975;28;20243;-78
2022/08/01 10:12:41;;;;;;;2.40;2.28;;;;;;;31.00;37.47;99169.38;5050897;28;20303;-78
2022/08/01 10:15:16;;;;;;;2.50;2.40;;;;;;;31.34;35.57;99166.88;5054631;28;20236;-78
2022/08/01 10:17:54;;;;;;;3.47;2.70;;;;;;;31.19;36.19;99163.06;5046170;28;20237;-79
2022/08/01 10:20:32;;;;;;;3.03;2.72;;;;;;;31.19;35.86;99156.72;5055172;28;20229;-79
2022/08/01 10:23:02;;;;;;;2.92;2.70;;;;;;;31.17;35.50;99170.91;5051096;28;20634;-81
2022/08/01 10:25:37;;;;;;;3.05;2.55;;;;;;;31.27;35.91;99152.91;5045766;28;20249;-79
2022/08/01 10:28:19;;;;;;;2.70;2.50;;;;;;;31.60;35.88;99161.41;5050754;28;20229;-81
2022/08/01 10:30:49;;;;;;;2.78;2.58;;;;;;;31.81;34.55;99159.00;5054911;28;20235;-80
2022/08/01 10:33:18;;;;;;;5.95;2.67;;;;;;;31.83;34.20;99153.06;5055987;28;20581;-78
2022/08/01 10:36:05;;;;;;;3.38;2.80;;;;;;;31.92;35.21;99154.41;5062815;28;20233;-78
2022/08/01 10:38:35;;;;;;;3.42;3.13;;;;;;;31.93;35.12;99155.22;5047864;28;20651;-78
2022/08/01 10:41:04;;;;;;;2.92;2.70;;;;;;;32.14;35.04;99157.53;5055423;28;20237;-79
2022/08/01 10:43:32;;;;;;;2.50;2.30;;;;;;;31.79;33.55;99150.25;5051655;28;20229;-79
2022/08/01 10:46:02;;;;;;;5.25;2.70;;;;;;;32.07;34.18;99155.41;5052397;28;20237;-79
2022/08/01 10:48:43;;;;;;;4.35;2.40;;;;;;;32.31;32.61;99156.97;5055165;28;20225;-78
2022/08/01 10:51:10;;;;;;;2.88;2.67;;;;;;;32.44;32.35;99144.47;5029359;28;20230;-81
2022/08/01 10:53:50;;;;;;;3.05;2.50;;;;;;;33.01;31.79;99150.72;5067437;28;20220;-78
2022/08/01 10:56:23;;;;;;;3.08;2.22;;;;;;;33.95;30.25;99146.44;5060221;28;20239;-78
2022/08/01 10:59:02;;;;;;;2.90;2.70;;;;;;;33.64;31.00;99139.44;5056522;28;20232;-80
2022/08/01 11:01:36;;;;;;;3.55;2.60;;;;;;;33.81;31.20;99141.59;5056692;28;20260;-78
2022/08/01 11:04:08;;;;;;;4.45;2.63;;;;;;;32.90;31.44;99153.38;5054884;28;20256;-79
2022/08/01 11:06:50;;;;;;;3.15;2.83;;;;;;;32.68;32.83;99151.53;5058751;28;20793;-79
2022/08/01 11:09:24;;;;;;;2.50;2.35;;;;;;;32.16;34.30;99146.88;5052366;28;20233;-79
2022/08/01 11:12:38;;;;;;;2.75;2.60;;;;;;;31.45;35.41;99145.69;5043083;28;20286;-81
2022/08/01 11:15:07;;;;;;;3.65;2.70;;;;;;;31.41;36.39;99150.38;5044699;28;20276;-78
2022/08/01 11:17:35;;;;;;;4.32;2.50;;;;;;;31.37;36.38;99153.09;5044229;28;20284;-78
2022/08/01 11:20:43;;;;;;;5.10;2.63;;;;;;;31.40;36.13;99151.56;5050190;28;20234;-78
2022/08/01 11:23:12;;;;;;;3.88;2.63;;;;;;;31.28;35.78;99144.25;5045759;28;20243;-80
2022/08/01 11:25:41;;;;;;;2.80;2.60;;;;;;;30.80;36.69;99139.34;5057341;28;20400;-79
2022/08/01 11:28:30;;;;;;;3.78;3.20;;;;;;;31.03;36.83;99132.72;5046048;28;20245;-82
2022/08/01 11:31:07;;;;;;;2.97;2.78;;;;;;;31.37;37.21;99138.44;5040972;28;20236;-80
2022/08/01 11:33:47;;;;;;;3.03;2.72;;;;;;;31.56;37.21;99138.41;5062661;28;20243;-79
2022/08/01 11:36:17;;;;;;;3.50;2.72;;;;;;;31.66;35.89;99142.53;5057401;28;20687;-78
2022/08/01 11:38:57;;;;;;;3.03;2.83;;;;;;;32.33;35.52;99138.00;5063975;28;20225;-79
2022/08/01 11:41:31;;;;;;;3.60;2.70;;;;;;;32.57;34.33;99145.06;5053099;28;20293;-78
2022/08/01 11:44:10;;;;;;;2.65;2.45;;;;;;;33.43;32.59;99137.28;5049957;28;20248;-78